Time;durP1;ratioP1;P1;durP2;ratioP2;P2;SDS_P1;SDS_P2;PMS_P1;PMS_P2;Temp;Humidity;BMP_temperature;BMP_pressure;BME280_temperature;BME280_humidity;BME280_pressure;Samples;Min_cycle;Max_cycle;Signal;HPM_P1;HPM_P2
2020/12/26 00:00:20;;;;;;;;;;;27.10;37.60;;;;;;5073786;28;19916;-63
2020/12/26 00:02:46;;;;;;;;;;;27.10;37.60;;;;;;5080015;28;19911;-63
2020/12/26 00:05:11;;;;;;;;;;;27.10;38.20;;;;;;5075801;28;19916;-63
2020/12/26 00:07:37;;;;;;;;;;;27.10;37.60;;;;;;5093735;28;20295;-63
2020/12/26 00:10:02;;;;;;;;;;;27.10;37.60;;;;;;5092942;28;19915;-63
2020/12/26 00:12:28;;;;;;;;;;;27.00;37.60;;;;;;5073682;28;20336;-63
2020/12/26 00:14:53;;;;;;;;;;;27.00;37.60;;;;;;5073360;28;20362;-63
2020/12/26 00:17:19;;;;;;;;;;;27.00;37.70;;;;;;5073657;28;19926;-63
2020/12/26 00:19:44;;;;;;;;;;;27.00;37.60;;;;;;5076610;28;20405;-63
2020/12/26 00:22:10;;;;;;;;;;;27.00;37.60;;;;;;5091558;28;19920;-63
2020/12/26 00:24:36;;;;;;;;;;;27.00;37.70;;;;;;5093610;28;20361;-63
2020/12/26 00:27:02;;;;;;;;;;;27.00;37.70;;;;;;5093395;28;19920;-63
2020/12/26 00:29:27;;;;;;;;;;;27.00;37.70;;;;;;5093686;28;20415;-63
2020/12/26 00:31:53;;;;;;;;;;;27.00;37.60;;;;;;5086961;28;19913;-63
2020/12/26 00:34:19;;;;;;;;;;;27.00;37.60;;;;;;5089023;28;19919;-63
2020/12/26 00:36:44;;;;;;;;;;;27.00;37.60;;;;;;5089210;28;19912;-62
2020/12/26 00:39:10;;;;;;;;;;;27.00;37.60;;;;;;5081339;28;19921;-63
2020/12/26 00:41:35;;;;;;;;;;;27.00;37.60;;;;;;5074834;28;19962;-63
2020/12/26 00:44:01;;;;;;;;;;;27.00;37.70;;;;;;5093184;28;19908;-63
2020/12/26 00:46:26;;;;;;;;;;;27.00;37.70;;;;;;5092128;28;19965;-63
2020/12/26 00:48:51;;;;;;;;;;;27.00;37.60;;;;;;5072412;28;19915;-63
2020/12/26 00:51:17;;;;;;;;;;;27.00;37.60;;;;;;5077607;28;20335;-63
2020/12/26 00:53:43;;;;;;;;;;;27.00;38.20;;;;;;5079759;28;19913;-62
2020/12/26 00:56:08;;;;;;;;;;;27.00;37.60;;;;;;5093307;28;20324;-63
2020/12/26 00:58:34;;;;;;;;;;;27.00;37.50;;;;;;5093326;28;19999;-63
2020/12/26 01:00:59;;;;;;;;;;;27.00;37.50;;;;;;5092853;28;20293;-63
2020/12/26 01:03:27;;;;;;;;;;;27.00;37.60;;;;;;5086416;28;19955;-63
2020/12/26 01:05:53;;;;;;;;;;;27.00;37.60;;;;;;5091149;28;20439;-63
2020/12/26 01:08:18;;;;;;;;;;;27.00;37.60;;;;;;5092893;28;19908;-63
2020/12/26 01:10:44;;;;;;;;;;;26.90;37.60;;;;;;5088519;28;19912;-63
2020/12/26 01:13:09;;;;;;;;;;;27.00;37.60;;;;;;5073027;28;19913;-62
2020/12/26 01:15:34;;;;;;;;;;;27.00;37.60;;;;;;5072557;28;19915;-63
2020/12/26 01:18:00;;;;;;;;;;;27.00;37.60;;;;;;5078550;28;19939;-63
2020/12/26 01:20:25;;;;;;;;;;;27.00;37.60;;;;;;5083949;28;19970;-63
2020/12/26 01:22:51;;;;;;;;;;;27.00;37.60;;;;;;5083295;28;19912;-63
2020/12/26 01:25:16;;;;;;;;;;;27.00;37.60;;;;;;5093071;28;19934;-63
2020/12/26 01:27:42;;;;;;;;;;;27.00;37.60;;;;;;5091995;28;19927;-63
2020/12/26 01:30:07;;;;;;;;;;;27.00;37.50;;;;;;5091474;28;19961;-63
2020/12/26 01:32:33;;;;;;;;;;;27.00;37.50;;;;;;5085355;28;19919;-63
2020/12/26 01:34:58;;;;;;;;;;;27.00;37.50;;;;;;5092896;28;19908;-63
2020/12/26 01:37:24;;;;;;;;;;;27.00;37.60;;;;;;5080119;28;20328;-63
2020/12/26 01:39:49;;;;;;;;;;;27.00;37.60;;;;;;5072549;28;19952;-63
2020/12/26 01:42:15;;;;;;;;;;;27.00;37.60;;;;;;5074938;28;19999;-63
2020/12/26 01:44:40;;;;;;;;;;;26.90;37.60;;;;;;5084437;28;20367;-63
2020/12/26 01:47:06;;;;;;;;;;;26.90;37.50;;;;;;5085943;28;19916;-63
2020/12/26 01:49:31;;;;;;;;;;;27.00;37.60;;;;;;5092738;28;19958;-63
2020/12/26 01:51:57;;;;;;;;;;;26.90;37.50;;;;;;5086029;28;19912;-63
2020/12/26 01:54:22;;;;;;;;;;;27.00;37.60;;;;;;5088075;28;19963;-63
2020/12/26 01:56:48;;;;;;;;;;;26.90;37.60;;;;;;5071819;28;20332;-63
2020/12/26 01:59:13;;;;;;;;;;;27.00;37.70;;;;;;5062875;28;19996;-63
2020/12/26 02:01:39;;;;;;;;;;;26.90;37.60;;;;;;5058279;28;21383;-63
2020/12/26 02:04:05;;;;;;;;;;;26.90;37.60;;;;;;5077380;28;19919;-63
2020/12/26 02:06:51;;;;;;;;;;;26.90;37.70;;;;;;5076848;28;20282;-63
2020/12/26 02:09:16;;;;;;;;;;;26.90;37.60;;;;;;5075527;28;19930;-63
2020/12/26 02:11:42;;;;;;;;;;;26.90;37.60;;;;;;5072846;28;20008;-63
2020/12/26 02:14:07;;;;;;;;;;;26.90;37.60;;;;;;5069692;28;20293;-62
2020/12/26 02:16:45;;;;;;;;;;;26.90;37.60;;;;;;5089106;28;20270;-62
2020/12/26 02:19:11;;;;;;;;;;;26.90;37.60;;;;;;5075497;28;19939;-63
2020/12/26 02:21:37;;;;;;;;;;;26.90;37.60;;;;;;5076710;28;19912;-63
2020/12/26 02:24:02;;;;;;;;;;;26.90;37.70;;;;;;5094576;28;19912;-63
2020/12/26 02:26:28;;;;;;;;;;;26.90;37.60;;;;;;5094898;28;19919;-62
2020/12/26 02:28:54;;;;;;;;;;;26.90;37.60;;;;;;5079929;28;19982;-63
2020/12/26 02:31:19;;;;;;;;;;;26.90;37.60;;;;;;5076623;28;20378;-63
2020/12/26 02:33:45;;;;;;;;;;;26.90;37.60;;;;;;5085012;28;19938;-63
2020/12/26 02:36:10;;;;;;;;;;;27.00;37.60;;;;;;5094642;28;19908;-63
2020/12/26 02:38:36;;;;;;;;;;;26.90;37.50;;;;;;5075448;28;20358;-62
2020/12/26 02:41:01;;;;;;;;;;;26.90;37.60;;;;;;5079493;28;19920;-63
2020/12/26 02:43:27;;;;;;;;;;;26.90;37.60;;;;;;5095598;28;19908;-62
2020/12/26 02:45:53;;;;;;;;;;;26.90;37.60;;;;;;5095343;28;20429;-63
2020/12/26 02:48:18;;;;;;;;;;;26.90;37.50;;;;;;5078602;28;19916;-63
2020/12/26 02:50:44;;;;;;;;;;;26.90;37.50;;;;;;5075158;28;19909;-63
2020/12/26 02:53:09;;;;;;;;;;;26.90;37.50;;;;;;5089676;28;19916;-63
2020/12/26 02:55:35;;;;;;;;;;;27.00;37.50;;;;;;5093054;28;19915;-63
2020/12/26 02:58:00;;;;;;;;;;;26.90;37.50;;;;;;5088664;28;20377;-63
2020/12/26 03:00:26;;;;;;;;;;;26.90;37.50;;;;;;5095209;28;19922;-63
2020/12/26 03:02:51;;;;;;;;;;;26.90;37.50;;;;;;5082929;28;19916;-63
2020/12/26 03:05:17;;;;;;;;;;;26.90;37.50;;;;;;5074667;28;19915;-63
2020/12/26 03:07:42;;;;;;;;;;;26.90;37.50;;;;;;5090505;28;19912;-63
2020/12/26 03:10:08;;;;;;;;;;;26.90;37.50;;;;;;5090062;28;20413;-63
2020/12/26 03:12:33;;;;;;;;;;;26.90;37.50;;;;;;5083856;28;20015;-62
2020/12/26 03:14:59;;;;;;;;;;;26.90;37.50;;;;;;5095017;28;20561;-63
2020/12/26 03:17:24;;;;;;;;;;;26.90;37.50;;;;;;5093872;28;19918;-63
2020/12/26 03:19:49;;;;;;;;;;;26.90;37.50;;;;;;5091527;28;19924;-63
2020/12/26 03:22:15;;;;;;;;;;;26.90;37.60;;;;;;5093261;28;20014;-63
2020/12/26 03:24:40;;;;;;;;;;;26.90;37.60;;;;;;5094155;28;19920;-63
2020/12/26 03:27:06;;;;;;;;;;;26.90;37.60;;;;;;5094474;28;20437;-63
2020/12/26 03:29:31;;;;;;;;;;;26.90;37.60;;;;;;5094464;28;19915;-63
2020/12/26 03:31:57;;;;;;;;;;;26.90;37.60;;;;;;5092861;28;19957;-63
2020/12/26 03:34:22;;;;;;;;;;;26.90;37.50;;;;;;5083840;28;19939;-63
2020/12/26 03:36:48;;;;;;;;;;;26.90;37.60;;;;;;5088079;28;19954;-63
2020/12/26 03:39:13;;;;;;;;;;;26.90;37.60;;;;;;5078525;28;19923;-63
2020/12/26 03:41:39;;;;;;;;;;;26.90;37.60;;;;;;5076027;28;19924;-63
2020/12/26 03:44:04;;;;;;;;;;;26.90;37.60;;;;;;5094480;28;19908;-63
2020/12/26 03:46:30;;;;;;;;;;;26.90;37.50;;;;;;5092891;28;19913;-63
2020/12/26 03:48:55;;;;;;;;;;;26.90;37.50;;;;;;5074048;28;19909;-63
2020/12/26 03:51:21;;;;;;;;;;;26.90;37.50;;;;;;5074003;28;19912;-63
2020/12/26 03:53:46;;;;;;;;;;;26.90;37.50;;;;;;5073764;28;19909;-63
2020/12/26 03:56:15;;;;;;;;;;;26.90;37.50;;;;;;5073649;28;19909;-63
2020/12/26 03:58:41;;;;;;;;;;;26.90;37.50;;;;;;5093193;28;20281;-63
2020/12/26 04:01:06;;;;;;;;;;;26.90;37.50;;;;;;5093738;28;19917;-63
2020/12/26 04:03:32;;;;;;;;;;;26.90;37.50;;;;;;5079712;28;19957;-63
2020/12/26 04:05:58;;;;;;;;;;;26.90;37.50;;;;;;5075276;28;19916;-63
2020/12/26 04:08:23;;;;;;;;;;;26.90;37.50;;;;;;5092226;28;19957;-63
2020/12/26 04:10:49;;;;;;;;;;;26.90;37.50;;;;;;5091818;28;19915;-63
2020/12/26 04:13:14;;;;;;;;;;;26.90;37.50;;;;;;5093974;28;19912;-63
2020/12/26 04:15:40;;;;;;;;;;;26.90;37.50;;;;;;5093568;28;19912;-63
2020/12/26 04:18:05;;;;;;;;;;;26.90;37.50;;;;;;5086416;28;19920;-63
2020/12/26 04:20:31;;;;;;;;;;;26.90;37.50;;;;;;5093483;28;20347;-63
2020/12/26 04:22:56;;;;;;;;;;;26.80;37.40;;;;;;5090408;28;19912;-63
2020/12/26 04:25:21;;;;;;;;;;;26.90;37.50;;;;;;5093643;28;19965;-63
2020/12/26 04:27:47;;;;;;;;;;;26.90;37.50;;;;;;5092622;28;19927;-63
2020/12/26 04:30:12;;;;;;;;;;;26.90;37.50;;;;;;5077806;28;19919;-63
2020/12/26 04:32:38;;;;;;;;;;;26.80;37.50;;;;;;5090713;28;20274;-63
2020/12/26 04:35:03;;;;;;;;;;;26.90;37.40;;;;;;5079958;28;19912;-63
2020/12/26 04:37:29;;;;;;;;;;;26.90;37.40;;;;;;5073572;28;19908;-63
2020/12/26 04:39:54;;;;;;;;;;;26.90;37.40;;;;;;5072774;28;20050;-63
2020/12/26 04:42:20;;;;;;;;;;;26.90;37.40;;;;;;5073392;28;19927;-63
2020/12/26 04:44:45;;;;;;;;;;;26.90;37.50;;;;;;5080235;28;20319;-62
2020/12/26 04:47:12;;;;;;;;;;;26.90;37.40;;;;;;5088949;28;20488;-62
2020/12/26 04:49:38;;;;;;;;;;;26.90;37.40;;;;;;5073118;28;19909;-62
2020/12/26 04:52:04;;;;;;;;;;;26.90;37.40;;;;;;5082452;28;19913;-63
2020/12/26 04:54:31;;;;;;;;;;;26.90;37.40;;;;;;5064491;28;19920;-63
2020/12/26 04:56:56;;;;;;;;;;;26.90;37.40;;;;;;5092182;28;19919;-63
2020/12/26 04:59:22;;;;;;;;;;;26.90;37.50;;;;;;5077260;28;19913;-63
2020/12/26 05:01:48;;;;;;;;;;;26.90;37.40;;;;;;5076272;28;19923;-63
2020/12/26 05:04:13;;;;;;;;;;;26.90;37.40;;;;;;5089411;28;19921;-63
2020/12/26 05:06:51;;;;;;;;;;;26.90;37.40;;;;;;5072754;28;19913;-63
2020/12/26 05:09:17;;;;;;;;;;;26.90;37.40;;;;;;5073128;28;19913;-63
2020/12/26 05:11:58;;;;;;;;;;;26.90;37.30;;;;;;5076704;28;19926;-63
2020/12/26 05:14:24;;;;;;;;;;;26.90;37.30;;;;;;5091517;28;20296;-63
2020/12/26 05:16:50;;;;;;;;;;;26.80;37.30;;;;;;5072660;28;19909;-63
2020/12/26 05:19:15;;;;;;;;;;;26.90;37.30;;;;;;5072832;28;19919;-63
2020/12/26 05:21:41;;;;;;;;;;;26.90;37.30;;;;;;5074794;28;20012;-63
2020/12/26 05:24:07;;;;;;;;;;;26.90;37.30;;;;;;5092220;28;19919;-63
2020/12/26 05:26:42;;;;;;;;;;;26.90;37.30;;;;;;5085615;28;20016;-63
2020/12/26 05:29:08;;;;;;;;;;;26.90;37.30;;;;;;5092368;28;19943;-63
2020/12/26 05:31:53;;;;;;;;;;;26.90;37.30;;;;;;5090981;28;19959;-63
2020/12/26 05:34:19;;;;;;;;;;;26.90;37.30;;;;;;5084145;28;19913;-63
2020/12/26 05:36:44;;;;;;;;;;;26.90;37.30;;;;;;5081817;28;19912;-63
2020/12/26 05:39:10;;;;;;;;;;;26.80;37.20;;;;;;5090337;28;20377;-63
2020/12/26 05:41:37;;;;;;;;;;;26.90;37.20;;;;;;5078120;28;20362;-63
2020/12/26 05:44:02;;;;;;;;;;;26.90;37.30;;;;;;5096811;28;19908;-63
2020/12/26 05:46:28;;;;;;;;;;;26.80;37.30;;;;;;5095646;28;19916;-63
2020/12/26 05:48:53;;;;;;;;;;;26.90;37.30;;;;;;5079756;28;19912;-64
2020/12/26 05:51:28;;;;;;;;;;;26.80;37.20;;;;;;5078982;28;19912;-63
2020/12/26 05:53:56;;;;;;;;;;;26.80;37.20;;;;;;5091968;28;19912;-63
2020/12/26 05:56:22;;;;;;;;;;;26.90;37.20;;;;;;5096622;28;19965;-63
2020/12/26 05:58:48;;;;;;;;;;;26.80;37.20;;;;;;5096588;28;19908;-63
2020/12/26 06:01:20;;;;;;;;;;;26.80;37.20;;;;;;5096309;28;19999;-63
2020/12/26 06:03:46;;;;;;;;;;;26.80;37.20;;;;;;5079774;28;19912;-63
2020/12/26 06:06:11;;;;;;;;;;;26.80;37.20;;;;;;5090561;28;20288;-63
2020/12/26 06:08:37;;;;;;;;;;;26.80;37.20;;;;;;5093872;28;19982;-63
2020/12/26 06:11:03;;;;;;;;;;;26.80;37.20;;;;;;5091735;28;19913;-63
2020/12/26 06:13:29;;;;;;;;;;;26.80;37.10;;;;;;5093355;28;20412;-63
2020/12/26 06:16:11;;;;;;;;;;;26.80;37.20;;;;;;5088540;28;19913;-62
2020/12/26 06:18:40;;;;;;;;;;;26.80;37.20;;;;;;5076167;28;19951;-63
2020/12/26 06:21:05;;;;;;;;;;;26.80;37.10;;;;;;5092209;28;19926;-63
2020/12/26 06:23:31;;;;;;;;;;;26.80;37.20;;;;;;5093277;28;20003;-63
2020/12/26 06:25:56;;;;;;;;;;;26.80;37.20;;;;;;5095799;28;19984;-63
2020/12/26 06:28:22;;;;;;;;;;;26.80;37.10;;;;;;5093591;28;19928;-63
2020/12/26 06:30:47;;;;;;;;;;;26.80;37.10;;;;;;5095908;28;19912;-63
2020/12/26 06:33:13;;;;;;;;;;;26.80;37.20;;;;;;5081629;28;20274;-63
2020/12/26 06:35:41;;;;;;;;;;;26.80;37.10;;;;;;5083295;28;19912;-63
2020/12/26 06:38:10;;;;;;;;;;;26.80;37.10;;;;;;5095764;28;19908;-63
2020/12/26 06:40:35;;;;;;;;;;;26.80;37.10;;;;;;5089016;28;20412;-63
2020/12/26 06:43:01;;;;;;;;;;;26.80;37.10;;;;;;5075433;28;20003;-63
2020/12/26 06:45:33;;;;;;;;;;;26.80;37.10;;;;;;5090530;28;20373;-63
2020/12/26 06:47:59;;;;;;;;;;;26.80;37.10;;;;;;5079805;28;19912;-63
2020/12/26 06:50:24;;;;;;;;;;;26.80;37.10;;;;;;5075044;28;19915;-63
2020/12/26 06:52:50;;;;;;;;;;;26.80;37.10;;;;;;5094766;28;20398;-64
2020/12/26 06:55:34;;;;;;;;;;;26.80;37.10;;;;;;5091356;28;19936;-63
2020/12/26 06:57:59;;;;;;;;;;;26.80;37.10;;;;;;5088635;28;19912;-65
2020/12/26 07:00:25;;;;;;;;;;;26.80;37.10;;;;;;5094917;28;19923;-64
2020/12/26 07:03:10;;;;;;;;;;;26.80;37.10;;;;;;5084134;28;19923;-64
2020/12/26 07:05:36;;;;;;;;;;;26.80;37.00;;;;;;5082182;28;19970;-64
2020/12/26 07:08:01;;;;;;;;;;;26.80;37.00;;;;;;5095242;28;19939;-64
2020/12/26 07:10:34;;;;;;;;;;;26.80;37.00;;;;;;5082760;28;19908;-64
2020/12/26 07:12:59;;;;;;;;;;;26.80;37.00;;;;;;5081016;28;19912;-64
2020/12/26 07:15:31;;;;;;;;;;;26.80;37.00;;;;;;5074524;28;19908;-64
2020/12/26 07:17:57;;;;;;;;;;;26.80;37.00;;;;;;5084010;28;19951;-64
2020/12/26 07:20:31;;;;;;;;;;;26.80;37.10;;;;;;5094786;28;20119;-65
2020/12/26 07:23:12;;;;;;;;;;;26.80;37.00;;;;;;5091773;28;19908;-64
2020/12/26 07:25:37;;;;;;;;;;;26.80;37.00;;;;;;5094862;28;19912;-64
2020/12/26 07:28:03;;;;;;;;;;;26.80;37.10;;;;;;5079873;28;20272;-64
2020/12/26 07:30:28;;;;;;;;;;;26.80;37.00;;;;;;5074229;28;19913;-64
2020/12/26 07:32:58;;;;;;;;;;;26.80;37.00;;;;;;5076563;28;19966;-64
2020/12/26 07:35:25;;;;;;;;;;;26.80;37.00;;;;;;5067645;28;19993;-65
2020/12/26 07:37:50;;;;;;;;;;;26.80;37.00;;;;;;5078673;28;19916;-65
2020/12/26 07:40:17;;;;;;;;;;;26.80;37.00;;;;;;5073717;28;19927;-62
2020/12/26 07:42:45;;;;;;;;;;;26.80;37.00;;;;;;5085304;28;19916;-63
2020/12/26 07:45:13;;;;;;;;;;;26.80;37.00;;;;;;5094565;28;20320;-64
2020/12/26 07:47:42;;;;;;;;;;;26.80;37.00;;;;;;5082882;28;20420;-63
2020/12/26 07:50:11;;;;;;;;;;;26.80;37.00;;;;;;5075199;28;19938;-63
2020/12/26 07:52:36;;;;;;;;;;;26.80;37.00;;;;;;5074068;28;19943;-63
2020/12/26 07:55:02;;;;;;;;;;;26.80;37.00;;;;;;5074048;28;20364;-63
2020/12/26 07:57:28;;;;;;;;;;;26.80;37.00;;;;;;5082911;28;19919;-63
2020/12/26 07:59:53;;;;;;;;;;;26.80;37.00;;;;;;5094015;28;20717;-63
2020/12/26 08:02:19;;;;;;;;;;;26.80;37.00;;;;;;5085780;28;19999;-63
2020/12/26 08:04:47;;;;;;;;;;;26.80;37.10;;;;;;5075045;28;20298;-63
2020/12/26 08:07:13;;;;;;;;;;;26.70;36.90;;;;;;5087342;28;19981;-62
2020/12/26 08:09:39;;;;;;;;;;;26.80;37.00;;;;;;5083586;28;20657;-63
2020/12/26 08:12:07;;;;;;;;;;;26.80;37.00;;;;;;5079711;28;19919;-62
2020/12/26 08:14:33;;;;;;;;;;;26.80;36.90;;;;;;5093883;28;20007;-63
2020/12/26 08:16:58;;;;;;;;;;;26.80;37.00;;;;;;5090436;28;19996;-64
2020/12/26 08:19:24;;;;;;;;;;;26.80;36.90;;;;;;5091986;28;19912;-62
2020/12/26 08:21:56;;;;;;;;;;;26.70;36.90;;;;;;5075317;28;19916;-63
2020/12/26 08:24:22;;;;;;;;;;;26.80;37.00;;;;;;5093824;28;19939;-63
2020/12/26 08:26:47;;;;;;;;;;;26.80;36.90;;;;;;5092677;28;19920;-63
2020/12/26 08:29:13;;;;;;;;;;;26.80;36.90;;;;;;5093354;28;19930;-64
2020/12/26 08:31:38;;;;;;;;;;;26.80;36.90;;;;;;5079532;28;19921;-63
2020/12/26 08:34:09;;;;;;;;;;;26.80;36.90;;;;;;5092063;28;19912;-62
2020/12/26 08:36:38;;;;;;;;;;;26.80;36.90;;;;;;5080716;28;19943;-63
2020/12/26 08:39:03;;;;;;;;;;;26.80;36.90;;;;;;5090349;28;20354;-63
2020/12/26 08:41:30;;;;;;;;;;;26.80;36.90;;;;;;5093036;28;19927;-63
2020/12/26 08:43:55;;;;;;;;;;;26.80;36.90;;;;;;5086622;28;20404;-63
2020/12/26 08:46:25;;;;;;;;;;;26.80;36.90;;;;;;5073061;28;19954;-61
2020/12/26 08:48:55;;;;;;;;;;;26.80;36.90;;;;;;5093273;28;19919;-63
2020/12/26 08:51:21;;;;;;;;;;;26.80;36.90;;;;;;5075633;28;19924;-63
2020/12/26 08:53:46;;;;;;;;;;;26.80;36.90;;;;;;5073022;28;19955;-62
2020/12/26 08:56:12;;;;;;;;;;;26.80;36.90;;;;;;5072689;28;19944;-63
2020/12/26 08:58:37;;;;;;;;;;;26.70;36.90;;;;;;5082580;28;19920;-63
2020/12/26 09:01:04;;;;;;;;;;;26.80;36.90;;;;;;5072587;28;20014;-63
2020/12/26 09:03:30;;;;;;;;;;;26.80;36.90;;;;;;5085043;28;20003;-63
2020/12/26 09:05:56;;;;;;;;;;;26.80;36.90;;;;;;5079905;28;20396;-63
2020/12/26 09:08:28;;;;;;;;;;;26.80;36.90;;;;;;5093156;28;19908;-63
2020/12/26 09:10:57;;;;;;;;;;;26.70;36.80;;;;;;5085105;28;19912;-63
2020/12/26 09:13:28;;;;;;;;;;;26.70;36.80;;;;;;5097408;28;19912;-63
2020/12/26 09:15:54;;;;;;;;;;;26.70;36.80;;;;;;5097273;28;19908;-63
2020/12/26 09:18:23;;;;;;;;;;;26.80;36.90;;;;;;5078571;28;19948;-62
2020/12/26 09:20:58;;;;;;;;;;;26.70;36.90;;;;;;5076859;28;20003;-62
2020/12/26 09:23:24;;;;;;;;;;;26.80;36.90;;;;;;5093121;28;19959;-62
2020/12/26 09:25:49;;;;;;;;;;;26.70;36.90;;;;;;5096088;28;19935;-63
2020/12/26 09:28:15;;;;;;;;;;;26.80;36.90;;;;;;5080519;28;19931;-62
2020/12/26 09:30:41;;;;;;;;;;;26.80;36.90;;;;;;5076467;28;19916;-63
2020/12/26 09:33:06;;;;;;;;;;;26.80;36.90;;;;;;5076490;28;19920;-62
2020/12/26 09:35:32;;;;;;;;;;;26.80;36.90;;;;;;5078788;28;19912;-62
2020/12/26 09:37:57;;;;;;;;;;;26.80;36.90;;;;;;5096099;28;19913;-62
2020/12/26 09:40:26;;;;;;;;;;;26.70;36.90;;;;;;5085323;28;20089;-63
2020/12/26 09:42:52;;;;;;;;;;;26.80;36.90;;;;;;5088821;28;19916;-62
2020/12/26 09:45:18;;;;;;;;;;;26.80;36.90;;;;;;5096835;28;19915;-63
2020/12/26 09:47:43;;;;;;;;;;;26.70;36.90;;;;;;5084849;28;20370;-63
2020/12/26 09:50:09;;;;;;;;;;;26.80;36.90;;;;;;5075933;28;19916;-62
2020/12/26 09:52:34;;;;;;;;;;;26.80;36.90;;;;;;5084281;28;19967;-63
2020/12/26 09:55:00;;;;;;;;;;;26.80;36.90;;;;;;5076015;28;20381;-62
2020/12/26 09:57:25;;;;;;;;;;;26.80;36.90;;;;;;5084600;28;19925;-63
2020/12/26 09:59:51;;;;;;;;;;;26.80;36.90;;;;;;5095144;28;20353;-64
2020/12/26 10:02:16;;;;;;;;;;;26.80;36.80;;;;;;5088303;28;19916;-62
2020/12/26 10:04:41;;;;;;;;;;;26.80;36.80;;;;;;5076849;28;19970;-64
2020/12/26 10:07:07;;;;;;;;;;;26.80;36.80;;;;;;5086905;28;19954;-64
2020/12/26 10:09:32;;;;;;;;;;;26.80;36.80;;;;;;5075945;28;19908;-62
2020/12/26 10:11:58;;;;;;;;;;;26.80;36.70;;;;;;5079478;28;19912;-62
2020/12/26 10:14:23;;;;;;;;;;;26.80;36.80;;;;;;5075918;28;19912;-64
2020/12/26 10:16:49;;;;;;;;;;;26.80;36.80;;;;;;5079454;28;20251;-63
2020/12/26 10:19:14;;;;;;;;;;;26.80;36.80;;;;;;5095868;28;19908;-62
2020/12/26 10:21:39;;;;;;;;;;;26.80;36.80;;;;;;5088511;28;19924;-63
2020/12/26 10:24:05;;;;;;;;;;;26.80;36.90;;;;;;5094368;28;20293;-63
2020/12/26 10:26:30;;;;;;;;;;;26.80;36.80;;;;;;5076327;28;19913;-63
2020/12/26 10:28:56;;;;;;;;;;;26.80;36.90;;;;;;5075783;28;19909;-63
2020/12/26 10:31:27;;;;;;;;;;;26.80;36.90;;;;;;5084845;28;19916;-63
2020/12/26 10:33:52;;;;;;;;;;;26.80;36.90;;;;;;5095923;28;19912;-63
2020/12/26 10:36:18;;;;;;;;;;;26.80;36.90;;;;;;5088045;28;20320;-63
2020/12/26 10:38:44;;;;;;;;;;;26.80;36.80;;;;;;5092981;28;19914;-63
2020/12/26 10:41:09;;;;;;;;;;;26.80;36.80;;;;;;5085402;28;19927;-62
2020/12/26 10:43:35;;;;;;;;;;;26.80;36.90;;;;;;5092082;28;20267;-63
2020/12/26 10:46:00;;;;;;;;;;;26.80;36.90;;;;;;5095427;28;19912;-62
2020/12/26 10:48:25;;;;;;;;;;;26.80;36.90;;;;;;5090694;28;19966;-63
2020/12/26 10:50:51;;;;;;;;;;;26.80;36.90;;;;;;5075260;28;19948;-63
2020/12/26 10:53:16;;;;;;;;;;;26.80;36.90;;;;;;5090486;28;19919;-63
2020/12/26 10:55:42;;;;;;;;;;;26.90;37.00;;;;;;5093524;28;19912;-63
2020/12/26 10:58:07;;;;;;;;;;;26.80;36.90;;;;;;5074854;28;19919;-62
2020/12/26 11:00:33;;;;;;;;;;;26.80;36.90;;;;;;5077151;28;19927;-63
2020/12/26 11:02:58;;;;;;;;;;;26.80;36.90;;;;;;5095075;28;20368;-63
2020/12/26 11:05:24;;;;;;;;;;;26.80;37.00;;;;;;5094857;28;19909;-65
2020/12/26 11:07:49;;;;;;;;;;;26.80;36.90;;;;;;5078388;28;19912;-64
2020/12/26 11:10:15;;;;;;;;;;;26.80;36.90;;;;;;5095103;28;20304;-63
2020/12/26 11:12:40;;;;;;;;;;;26.80;36.90;;;;;;5085809;28;19940;-62
2020/12/26 11:15:06;;;;;;;;;;;26.80;36.90;;;;;;5095114;28;20259;-63
2020/12/26 11:17:31;;;;;;;;;;;26.80;36.90;;;;;;5094359;28;19943;-65
2020/12/26 11:19:57;;;;;;;;;;;26.90;36.90;;;;;;5094856;28;20358;-63
2020/12/26 11:22:22;;;;;;;;;;;26.90;36.90;;;;;;5092536;28;19912;-64
2020/12/26 11:24:47;;;;;;;;;;;26.90;36.90;;;;;;5094721;28;19912;-64
2020/12/26 11:27:13;;;;;;;;;;;26.80;36.80;;;;;;5073672;28;19924;-64
2020/12/26 11:29:38;;;;;;;;;;;26.90;36.90;;;;;;5054582;28;19954;-62
2020/12/26 11:32:04;;;;;;;;;;;26.90;37.00;;;;;;5054055;28;20323;-63
2020/12/26 11:34:29;;;;;;;;;;;26.90;37.00;;;;;;5054196;28;20312;-62
2020/12/26 11:36:55;;;;;;;;;;;26.90;37.00;;;;;;5090840;28;20476;-63
2020/12/26 11:39:20;;;;;;;;;;;26.90;37.00;;;;;;5091413;28;19923;-62
2020/12/26 11:41:46;;;;;;;;;;;26.90;37.00;;;;;;5090591;28;20006;-63
2020/12/26 11:44:11;;;;;;;;;;;26.80;36.90;;;;;;5073948;28;19908;-63
2020/12/26 11:46:37;;;;;;;;;;;26.90;37.00;;;;;;5076266;28;19908;-62
2020/12/26 11:49:03;;;;;;;;;;;26.90;37.00;;;;;;5094007;28;20005;-63
2020/12/26 11:51:29;;;;;;;;;;;26.90;36.90;;;;;;5092769;28;19912;-63
2020/12/26 11:53:54;;;;;;;;;;;26.90;36.90;;;;;;5080160;28;19919;-63
2020/12/26 11:56:20;;;;;;;;;;;26.90;36.90;;;;;;5076303;28;20371;-63
2020/12/26 11:58:45;;;;;;;;;;;26.90;37.00;;;;;;5093726;28;19931;-62
2020/12/26 12:01:11;;;;;;;;;;;26.90;37.00;;;;;;5084685;28;19924;-64
2020/12/26 12:03:36;;;;;;;;;;;26.90;37.00;;;;;;5073593;28;19909;-62
2020/12/26 12:06:02;;;;;;;;;;;26.90;37.00;;;;;;5081281;28;19921;-62
2020/12/26 12:08:27;;;;;;;;;;;26.90;37.00;;;;;;5080849;28;19913;-62
2020/12/26 12:10:53;;;;;;;;;;;26.90;37.00;;;;;;5082799;28;20269;-63
2020/12/26 12:13:18;;;;;;;;;;;26.90;37.00;;;;;;5076803;28;20035;-63
2020/12/26 12:15:44;;;;;;;;;;;26.90;37.00;;;;;;5073681;28;19913;-64
2020/12/26 12:18:09;;;;;;;;;;;26.80;37.00;;;;;;5088478;28;20285;-62
2020/12/26 12:20:35;;;;;;;;;;;26.90;37.00;;;;;;5084842;28;19920;-62
2020/12/26 12:23:00;;;;;;;;;;;26.90;37.00;;;;;;5087103;28;19922;-62
2020/12/26 12:25:26;;;;;;;;;;;26.90;37.00;;;;;;5090217;28;19912;-64
2020/12/26 12:27:51;;;;;;;;;;;26.90;37.00;;;;;;5073095;28;19926;-64
2020/12/26 12:30:17;;;;;;;;;;;26.90;37.00;;;;;;5083844;28;20006;-63
2020/12/26 12:32:42;;;;;;;;;;;26.90;37.00;;;;;;5093474;28;19999;-62
2020/12/26 12:35:08;;;;;;;;;;;26.90;37.00;;;;;;5087827;28;20358;-62
2020/12/26 12:37:34;;;;;;;;;;;26.90;37.00;;;;;;5087949;28;20449;-62
2020/12/26 12:39:59;;;;;;;;;;;26.90;37.00;;;;;;5080386;28;19924;-63
2020/12/26 12:42:28;;;;;;;;;;;26.90;37.10;;;;;;5087947;28;19923;-62
2020/12/26 12:44:54;;;;;;;;;;;26.90;37.10;;;;;;5092581;28;19908;-62
2020/12/26 12:47:23;;;;;;;;;;;26.90;37.00;;;;;;5084951;28;19965;-64
2020/12/26 12:49:48;;;;;;;;;;;26.90;37.10;;;;;;5078184;28;19912;-62
2020/12/26 12:52:13;;;;;;;;;;;26.90;37.00;;;;;;5085633;28;20244;-62
2020/12/26 12:54:39;;;;;;;;;;;27.00;37.00;;;;;;5072856;28;19987;-63
2020/12/26 12:57:04;;;;;;;;;;;26.90;37.00;;;;;;5083925;28;19916;-62
2020/12/26 12:59:32;;;;;;;;;;;27.00;37.00;;;;;;5092991;28;20444;-64
2020/12/26 13:01:58;;;;;;;;;;;26.90;37.00;;;;;;5087462;28;19920;-63
2020/12/26 13:04:23;;;;;;;;;;;27.00;37.00;;;;;;5075391;28;19920;-62
2020/12/26 13:06:51;;;;;;;;;;;27.00;37.00;;;;;;5087472;28;19920;-64
2020/12/26 13:09:16;;;;;;;;;;;26.90;37.00;;;;;;5093220;28;19996;-62
2020/12/26 13:11:43;;;;;;;;;;;26.90;37.00;;;;;;5083913;28;19955;-64
2020/12/26 13:14:08;;;;;;;;;;;26.90;37.00;;;;;;5072788;28;20311;-63
2020/12/26 13:16:34;;;;;;;;;;;26.90;37.00;;;;;;5073263;28;19939;-62
2020/12/26 13:18:59;;;;;;;;;;;27.00;37.10;;;;;;5073727;28;19912;-64
2020/12/26 13:21:25;;;;;;;;;;;27.00;37.10;;;;;;5073109;28;20015;-64
2020/12/26 13:23:50;;;;;;;;;;;26.90;37.10;;;;;;5092808;28;19920;-65
2020/12/26 13:26:16;;;;;;;;;;;27.00;37.10;;;;;;5088606;28;19916;-63
2020/12/26 13:28:41;;;;;;;;;;;27.00;37.00;;;;;;5093167;28;19951;-64
2020/12/26 13:31:07;;;;;;;;;;;27.00;37.00;;;;;;5092908;28;19955;-65
2020/12/26 13:33:32;;;;;;;;;;;27.00;37.00;;;;;;5076457;28;19959;-64
2020/12/26 13:35:58;;;;;;;;;;;27.00;37.00;;;;;;5091783;28;19908;-64
2020/12/26 13:38:23;;;;;;;;;;;27.00;37.00;;;;;;5087083;28;19916;-64
2020/12/26 13:40:49;;;;;;;;;;;27.00;37.00;;;;;;5073233;28;19924;-64
2020/12/26 13:43:14;;;;;;;;;;;27.00;37.10;;;;;;5092702;28;19939;-64
2020/12/26 13:45:40;;;;;;;;;;;27.00;37.00;;;;;;5092788;28;20362;-64
2020/12/26 13:48:05;;;;;;;;;;;27.00;37.10;;;;;;5087531;28;19912;-64
2020/12/26 13:50:31;;;;;;;;;;;27.00;37.10;;;;;;5075965;28;19920;-64
2020/12/26 13:52:56;;;;;;;;;;;27.00;37.10;;;;;;5085365;28;19916;-64
2020/12/26 13:55:22;;;;;;;;;;;27.00;37.00;;;;;;5085016;28;19966;-64
2020/12/26 13:57:47;;;;;;;;;;;27.00;37.00;;;;;;5076080;28;19913;-64
2020/12/26 14:00:13;;;;;;;;;;;27.00;37.10;;;;;;5081082;28;19973;-64
2020/12/26 14:02:38;;;;;;;;;;;27.00;37.10;;;;;;5085732;28;19916;-64
2020/12/26 14:05:04;;;;;;;;;;;27.00;37.10;;;;;;5075889;28;19954;-64
2020/12/26 14:07:29;;;;;;;;;;;27.00;37.10;;;;;;5079621;28;19919;-64
2020/12/26 14:09:55;;;;;;;;;;;27.00;37.10;;;;;;5089789;28;19912;-64